createdAt,value
2022-09-15T00:01:50.050Z,11.27
2022-09-15T00:04:17.079Z,11.26
2022-09-15T00:06:43.716Z,11.25
2022-09-15T00:09:10.345Z,11.26
2022-09-15T00:11:37.308Z,11.26
2022-09-15T00:14:05.014Z,11.24
2022-09-15T00:16:32.076Z,11.22
2022-09-15T00:18:59.273Z,11.19
2022-09-15T00:21:29.127Z,11.18
2022-09-15T00:23:55.861Z,11.18
2022-09-15T00:26:24.073Z,11.18
2022-09-15T00:28:51.103Z,11.18
2022-09-15T00:31:19.481Z,11.18
2022-09-15T00:33:47.660Z,11.17
2022-09-15T00:36:14.607Z,11.16
2022-09-15T00:38:41.471Z,11.15
2022-09-15T00:41:09.716Z,11.13
2022-09-15T00:43:52.440Z,11.12
2022-09-15T00:46:25.393Z,11.11
2022-09-15T00:48:57.112Z,11.12
2022-09-15T00:51:29.587Z,11.11
2022-09-15T00:53:57.267Z,11.09
2022-09-15T00:56:23.966Z,11.08
2022-09-15T00:58:59.454Z,11.07
2022-09-15T01:01:26.547Z,11.07
2022-09-15T01:03:53.252Z,11.05
2022-09-15T01:06:42.891Z,11.03
2022-09-15T01:09:17.268Z,11.01
2022-09-15T01:11:44.842Z,10.98
2022-09-15T01:14:11.586Z,10.93
2022-09-15T01:16:47.918Z,10.89
2022-09-15T01:19:37.312Z,10.86
2022-09-15T01:22:16.308Z,10.85
2022-09-15T01:25:01.755Z,10.85
2022-09-15T01:27:47.595Z,10.83
2022-09-15T01:30:20.384Z,10.84
2022-09-15T01:33:13.386Z,10.85
2022-09-15T01:35:49.300Z,10.86
2022-09-15T01:38:21.299Z,10.86
2022-09-15T01:40:58.650Z,10.87
2022-09-15T01:43:25.354Z,10.88
2022-09-15T01:45:52.089Z,10.90
2022-09-15T01:48:20.992Z,10.92
2022-09-15T01:50:49.452Z,10.95
2022-09-15T01:53:18.027Z,10.97
2022-09-15T01:55:49.241Z,10.92
2022-09-15T01:58:16.277Z,10.84
2022-09-15T02:00:45.996Z,10.80
2022-09-15T02:03:27.603Z,10.82
2022-09-15T02:06:02.819Z,10.86
2022-09-15T02:08:36.949Z,10.90
2022-09-15T02:11:12.903Z,10.97
2022-09-15T02:13:56.706Z,11.02
2022-09-15T02:16:24.188Z,11.07
2022-09-15T02:19:03.233Z,11.10
2022-09-15T02:21:53.964Z,11.13
2022-09-15T02:24:30.174Z,11.13
2022-09-15T02:26:56.882Z,11.17
2022-09-15T02:29:23.876Z,11.22
2022-09-15T02:31:52.409Z,11.26
2022-09-15T02:34:26.068Z,11.31
2022-09-15T02:36:53.208Z,11.36
2022-09-15T02:39:21.765Z,11.40
2022-09-15T02:41:49.064Z,11.42
2022-09-15T02:44:15.932Z,11.43
2022-09-15T02:46:43.727Z,11.45
2022-09-15T02:49:10.555Z,11.49
2022-09-15T02:51:37.214Z,11.53
2022-09-15T02:54:03.922Z,11.54
2022-09-15T02:56:30.554Z,11.57
2022-09-15T02:58:57.159Z,11.61
2022-09-15T03:01:30.141Z,11.63
2022-09-15T03:03:56.816Z,11.63
2022-09-15T03:06:24.324Z,11.58
2022-09-15T03:08:58.564Z,11.52
2022-09-15T03:11:26.816Z,11.49
2022-09-15T03:13:54.739Z,11.49
2022-09-15T03:16:21.548Z,11.51
2022-09-15T03:18:48.460Z,11.52
2022-09-15T03:21:15.793Z,11.53
2022-09-15T03:23:42.659Z,11.53
2022-09-15T03:26:09.565Z,11.54
2022-09-15T03:28:36.994Z,11.56
2022-09-15T03:31:04.115Z,11.58
2022-09-15T03:33:31.103Z,11.58
2022-09-15T03:35:57.803Z,11.56
2022-09-15T03:38:24.851Z,11.56
2022-09-15T03:40:58.292Z,11.55
2022-09-15T03:43:25.688Z,11.56
2022-09-15T03:45:52.502Z,11.57
2022-09-15T03:48:19.291Z,11.56
2022-09-15T03:50:45.979Z,11.56
2022-09-15T03:53:12.664Z,11.59
2022-09-15T03:55:39.304Z,11.63
2022-09-15T03:58:05.951Z,11.67
2022-09-15T04:00:32.733Z,11.70
2022-09-15T04:02:59.528Z,11.74
2022-09-15T04:05:26.257Z,11.77
2022-09-15T04:07:52.917Z,11.80
2022-09-15T04:10:19.645Z,11.84
2022-09-15T04:12:46.642Z,11.90
2022-09-15T04:15:13.276Z,11.94
2022-09-15T04:17:40.054Z,11.93
2022-09-15T04:20:07.528Z,11.93
2022-09-15T04:22:34.209Z,11.95
2022-09-15T04:25:00.864Z,11.98
2022-09-15T04:27:28.089Z,12.02
2022-09-15T04:29:54.831Z,12.05
2022-09-15T04:32:22.040Z,12.10
2022-09-15T04:34:48.696Z,12.12
2022-09-15T04:37:15.328Z,12.15
2022-09-15T04:39:42.456Z,12.19
2022-09-15T04:42:09.089Z,12.26
2022-09-15T04:44:35.921Z,12.31
2022-09-15T04:47:02.740Z,12.35
2022-09-15T04:49:29.439Z,12.37
2022-09-15T04:51:56.441Z,12.37
2022-09-15T04:54:23.503Z,12.39
2022-09-15T04:56:52.058Z,12.43
2022-09-15T04:59:18.977Z,12.47
2022-09-15T05:01:45.898Z,12.52
2022-09-15T05:04:12.693Z,12.56
2022-09-15T05:06:39.473Z,12.60
2022-09-15T05:09:10.423Z,12.67
2022-09-15T05:11:38.483Z,12.74
2022-09-15T05:14:05.332Z,12.81
2022-09-15T05:16:32.318Z,12.88
2022-09-15T05:19:00.174Z,12.95
2022-09-15T05:21:27.280Z,13.01
2022-09-15T05:59:20.096Z,12.42
2022-09-15T06:01:46.841Z,12.39
2022-09-15T06:04:13.545Z,12.43
2022-09-15T06:06:40.500Z,12.50
2022-09-15T06:09:07.798Z,12.58
2022-09-15T06:11:34.700Z,12.68
2022-09-15T06:14:03.156Z,12.78
2022-09-15T06:16:32.181Z,12.87
2022-09-15T06:18:59.031Z,12.96
2022-09-15T06:21:27.996Z,13.04
2022-09-15T06:23:55.830Z,13.13
2022-09-15T06:26:22.645Z,13.21
2022-09-15T06:28:56.645Z,13.28
2022-09-15T06:31:23.869Z,13.34
2022-09-15T06:33:51.881Z,13.41
2022-09-15T06:36:19.316Z,13.46
2022-09-15T06:38:46.066Z,13.52
2022-09-15T06:41:12.944Z,13.60
2022-09-15T06:43:39.573Z,13.65
2022-09-15T06:46:10.806Z,13.69
2022-09-15T06:48:37.813Z,13.73
2022-09-15T06:51:04.877Z,13.77
2022-09-15T06:53:32.101Z,13.83
2022-09-15T06:56:09.449Z,13.86
2022-09-15T06:58:36.692Z,13.91
2022-09-15T07:01:09.849Z,13.94
2022-09-15T07:03:37.490Z,14.00
2022-09-15T07:06:04.656Z,14.05
2022-09-15T07:08:31.449Z,14.10
2022-09-15T07:10:58.257Z,14.15
2022-09-15T07:13:25.104Z,14.19
2022-09-15T07:15:57.415Z,14.26
2022-09-15T07:18:24.487Z,14.36
2022-09-15T07:20:51.352Z,14.45
2022-09-15T07:23:18.704Z,14.56
2022-09-15T07:25:45.658Z,14.68
2022-09-15T07:28:12.685Z,14.81
2022-09-15T07:30:39.540Z,14.93
2022-09-15T07:33:07.272Z,15.04
2022-09-15T07:35:34.002Z,15.13
2022-09-15T07:38:00.775Z,15.24
2022-09-15T07:40:28.219Z,15.33
2022-09-15T07:42:55.017Z,15.44
2022-09-15T07:45:21.817Z,15.56
2022-09-15T07:47:48.853Z,15.69
2022-09-15T07:50:15.508Z,15.78
2022-09-15T07:52:42.224Z,15.88
2022-09-15T07:55:09.574Z,15.97
2022-09-15T07:57:36.278Z,16.02
2022-09-15T08:00:04.026Z,16.08
2022-09-15T08:02:38.676Z,16.20
2022-09-15T08:05:05.829Z,16.31
2022-09-15T08:07:32.538Z,16.43
2022-09-15T08:09:59.228Z,16.54
2022-09-15T08:12:25.970Z,16.63
2022-09-15T08:14:52.618Z,16.69
2022-09-15T08:17:19.340Z,16.75
2022-09-15T08:19:45.975Z,16.81
2022-09-15T08:22:12.596Z,16.86
2022-09-15T08:24:39.304Z,16.90
2022-09-15T08:27:05.981Z,16.95
2022-09-15T08:29:32.824Z,17.01
2022-09-15T08:31:59.533Z,17.04
2022-09-15T08:34:26.235Z,17.10
2022-09-15T08:36:52.969Z,17.14
2022-09-15T08:39:19.682Z,17.17
2022-09-15T08:41:50.928Z,17.22
2022-09-15T08:44:42.031Z,17.27
2022-09-15T08:47:13.689Z,17.31
2022-09-15T08:49:52.080Z,17.31
2022-09-15T08:52:30.471Z,17.30
2022-09-15T08:54:57.830Z,17.30
2022-09-15T08:57:25.872Z,17.31
2022-09-15T08:59:54.484Z,17.35
2022-09-15T09:02:40.118Z,17.41
2022-09-15T09:05:29.605Z,17.47
2022-09-15T09:07:59.897Z,17.50
2022-09-15T09:11:05.798Z,17.52
2022-09-15T09:13:47.333Z,17.55
2022-09-15T09:16:30.319Z,17.56
2022-09-15T09:19:03.827Z,17.57
2022-09-15T09:21:31.893Z,17.61
2022-09-15T09:24:05.444Z,17.65
2022-09-15T09:26:34.783Z,17.67
2022-09-15T09:29:04.468Z,17.72
2022-09-15T09:31:31.227Z,17.78
2022-09-15T09:34:26.474Z,17.85
2022-09-15T09:37:14.544Z,17.93
2022-09-15T09:39:41.430Z,18.02
2022-09-15T09:42:13.924Z,18.10
2022-09-15T09:44:40.825Z,18.18
2022-09-15T09:47:07.754Z,18.24
2022-09-15T09:49:35.036Z,18.32
2022-09-15T09:52:03.581Z,18.39
2022-09-15T09:54:39.590Z,18.47
2022-09-15T09:57:23.162Z,18.51
2022-09-15T09:59:50.719Z,18.54
2022-09-15T10:02:21.229Z,18.57
2022-09-15T10:05:13.107Z,18.59
2022-09-15T10:07:45.836Z,18.63
2022-09-15T10:10:21.114Z,18.66
2022-09-15T10:12:47.785Z,18.70
2022-09-15T10:15:24.845Z,18.74
2022-09-15T10:17:51.630Z,18.76
2022-09-15T10:20:24.981Z,18.80
2022-09-15T10:22:51.777Z,18.88
2022-09-15T10:25:21.513Z,18.94
2022-09-15T10:28:14.429Z,19.02
2022-09-15T10:31:38.297Z,19.10
2022-09-15T10:34:31.310Z,19.19
2022-09-15T10:37:08.903Z,19.24
2022-09-15T10:39:48.283Z,19.29
2022-09-15T10:42:44.342Z,19.35
2022-09-15T10:45:37.644Z,19.40
2022-09-15T10:48:32.391Z,19.45
2022-09-15T10:51:01.346Z,19.50
2022-09-15T10:54:05.886Z,19.56
2022-09-15T10:56:35.255Z,19.61
2022-09-15T10:59:20.626Z,19.65
2022-09-15T11:01:54.674Z,19.69
2022-09-15T11:04:42.740Z,19.72
2022-09-15T11:07:47.833Z,19.73
2022-09-15T11:10:39.763Z,19.74
2022-09-15T11:13:19.668Z,19.70
2022-09-15T11:16:38.871Z,19.66
2022-09-15T11:19:05.540Z,19.64
2022-09-15T11:21:38.379Z,19.63
2022-09-15T11:24:23.505Z,19.62
2022-09-15T11:27:19.425Z,19.57
2022-09-15T11:30:18.432Z,19.50
2022-09-15T11:32:55.606Z,19.40
2022-09-15T11:35:37.947Z,19.34
2022-09-15T11:38:43.113Z,19.33
2022-09-15T11:41:31.180Z,19.34
2022-09-15T11:44:16.785Z,19.34
2022-09-15T11:47:21.460Z,19.36
2022-09-15T11:49:56.330Z,19.34
2022-09-15T11:52:55.855Z,19.35
2022-09-15T11:55:44.502Z,19.37
2022-09-15T11:58:29.053Z,19.34
2022-09-15T12:01:23.935Z,19.25
2022-09-15T12:03:57.959Z,19.16
2022-09-15T12:06:47.870Z,19.07
2022-09-15T12:09:16.491Z,19.01
2022-09-15T12:11:47.738Z,18.97
2022-09-15T12:14:17.122Z,18.97
2022-09-15T12:16:43.875Z,18.97
2022-09-15T12:19:33.404Z,18.95
2022-09-15T12:22:15.074Z,18.94
2022-09-15T12:24:45.973Z,18.93
2022-09-15T12:27:17.020Z,18.91
2022-09-15T12:30:00.365Z,18.88
2022-09-15T12:32:31.060Z,18.83
2022-09-15T12:35:16.167Z,18.81
2022-09-15T12:37:46.912Z,18.76
2022-09-15T12:40:34.918Z,18.70
2022-09-15T12:43:23.048Z,18.65
2022-09-15T12:45:55.105Z,18.59
2022-09-15T12:48:27.645Z,18.54
2022-09-15T12:51:02.352Z,18.50
2022-09-15T12:53:30.799Z,18.46
2022-09-15T12:55:59.489Z,18.45
2022-09-15T12:58:47.724Z,18.43
2022-09-15T13:01:23.786Z,18.44
2022-09-15T13:03:50.853Z,18.46
2022-09-15T13:06:21.514Z,18.48
2022-09-15T13:08:49.856Z,18.47
2022-09-15T13:11:37.535Z,18.47
2022-09-15T13:14:04.534Z,18.47
2022-09-15T13:17:01.251Z,18.45
2022-09-15T13:19:36.009Z,18.43
2022-09-15T13:22:11.969Z,18.41
2022-09-15T13:24:45.018Z,18.38
2022-09-15T13:27:12.287Z,18.37
2022-09-15T13:29:47.287Z,18.34
2022-09-15T13:32:22.059Z,18.33
2022-09-15T13:35:08.935Z,18.31
2022-09-15T13:38:15.118Z,18.31
2022-09-15T13:41:25.097Z,18.28
2022-09-15T13:44:10.273Z,18.23
2022-09-15T13:47:04.022Z,18.23
2022-09-15T13:49:47.006Z,18.21
2022-09-15T13:52:19.504Z,18.20
2022-09-15T13:55:18.599Z,18.19
2022-09-15T14:00:55.281Z,18.13
2022-09-15T14:03:44.017Z,18.09
2022-09-15T14:06:22.724Z,18.07
2022-09-15T14:08:51.856Z,18.08
2022-09-15T14:11:22.793Z,18.03
2022-09-15T14:13:49.552Z,17.99
2022-09-15T14:16:23.824Z,17.93
2022-09-15T14:18:51.279Z,17.89
2022-09-15T14:21:19.567Z,17.84
2022-09-15T14:23:51.149Z,17.84
2022-09-15T14:26:20.162Z,17.82
2022-09-15T14:28:52.177Z,17.81
2022-09-15T14:31:30.223Z,17.83
2022-09-15T14:33:56.948Z,17.84
2022-09-15T14:36:31.884Z,17.85
2022-09-15T14:39:16.892Z,17.84
2022-09-15T14:41:43.781Z,17.85
2022-09-15T14:47:26.274Z,17.86
2022-09-15T14:50:17.657Z,17.87
2022-09-15T14:52:45.356Z,17.88
2022-09-15T14:55:19.016Z,17.89
2022-09-15T14:57:50.733Z,17.90
2022-09-15T15:00:20.368Z,17.90
2022-09-15T15:02:52.423Z,17.87
2022-09-15T15:05:25.464Z,17.82
2022-09-15T15:07:52.205Z,17.77
2022-09-15T15:10:24.516Z,17.74
2022-09-15T15:12:53.770Z,17.70
2022-09-15T15:15:20.505Z,17.69
2022-09-15T15:17:49.786Z,17.72
2022-09-15T15:20:30.382Z,17.76
2022-09-15T15:23:24.110Z,17.79
2022-09-15T15:25:51.240Z,17.80
2022-09-15T15:28:34.224Z,17.80
2022-09-15T15:31:18.339Z,17.81
2022-09-15T15:33:46.783Z,17.81
2022-09-15T15:36:13.825Z,17.82
2022-09-15T15:38:47.130Z,17.82
2022-09-15T15:41:25.540Z,17.81
2022-09-15T15:43:56.053Z,17.79
2022-09-15T15:46:45.708Z,17.75
2022-09-15T15:49:13.213Z,17.71
2022-09-15T15:51:40.676Z,17.68
2022-09-15T15:54:07.369Z,17.69
2022-09-15T15:56:37.876Z,17.71
2022-09-15T15:59:05.947Z,17.72
2022-09-15T16:01:34.178Z,17.74
2022-09-15T16:04:01.256Z,17.75
2022-09-15T16:06:28.004Z,17.75
2022-09-15T16:08:54.631Z,17.73
2022-09-15T16:11:21.284Z,17.68
2022-09-15T16:13:48.427Z,17.62
2022-09-15T16:16:17.396Z,17.56
2022-09-15T16:18:44.142Z,17.53
2022-09-15T16:21:38.451Z,17.47
2022-09-15T16:24:05.696Z,17.44
2022-09-15T16:26:34.552Z,17.43
2022-09-15T16:29:01.484Z,17.42
2022-09-15T16:31:28.183Z,17.40
2022-09-15T16:33:54.908Z,17.38
2022-09-15T16:36:21.917Z,17.36
2022-09-15T16:38:48.585Z,17.36
2022-09-15T16:41:16.132Z,17.33
2022-09-15T16:43:43.519Z,17.33
2022-09-15T16:46:11.209Z,17.32
2022-09-15T16:48:42.741Z,17.29
2022-09-15T16:51:30.964Z,17.26
2022-09-15T16:53:58.800Z,17.22
2022-09-15T16:56:25.527Z,17.18
2022-09-15T16:58:58.928Z,17.14
2022-09-15T17:01:26.809Z,17.14
2022-09-15T17:03:53.648Z,17.14
2022-09-15T17:06:22.160Z,17.13
2022-09-15T17:08:48.977Z,17.11
2022-09-15T17:11:17.600Z,17.07
2022-09-15T17:13:44.435Z,17.05
2022-09-15T17:16:12.214Z,17.03
2022-09-15T17:18:38.864Z,17.01
2022-09-15T17:21:05.631Z,17.02
2022-09-15T17:23:37.032Z,17.02
2022-09-15T17:26:10.670Z,17.03
2022-09-15T17:28:37.623Z,17.03
2022-09-15T17:31:21.533Z,17.03
2022-09-15T17:33:48.526Z,17.01
2022-09-15T17:36:15.785Z,17.00
2022-09-15T17:38:42.590Z,16.99
2022-09-15T17:41:16.493Z,17.00
2022-09-15T17:43:43.248Z,17.02
2022-09-15T17:46:10.121Z,17.03
2022-09-15T17:48:38.634Z,17.02
2022-09-15T17:51:06.385Z,16.99
2022-09-15T17:53:33.027Z,16.99
2022-09-15T17:55:59.720Z,16.99
2022-09-15T17:58:26.871Z,16.97
2022-09-15T18:00:53.529Z,16.96
2022-09-15T18:03:28.123Z,16.95
2022-09-15T18:05:56.055Z,16.95
2022-09-15T18:08:22.721Z,16.97
2022-09-15T18:10:49.385Z,16.99
2022-09-15T18:13:21.045Z,17.01
2022-09-15T18:17:37.804Z,17.04
2022-09-15T18:20:04.795Z,17.04
2022-09-15T18:22:32.335Z,17.06
2022-09-15T18:24:58.801Z,17.08
2022-09-15T18:27:25.272Z,17.04
2022-09-15T18:29:51.760Z,17.01
2022-09-15T18:32:18.176Z,17.01
2022-09-15T18:34:46.831Z,17.01
2022-09-15T18:37:13.252Z,17.02
2022-09-15T18:39:40.320Z,17.01
2022-09-15T18:42:07.402Z,17.02
2022-09-15T18:44:34.487Z,17.02
2022-09-15T18:47:00.968Z,17.02
2022-09-15T18:49:27.773Z,17.01
2022-09-15T18:51:54.234Z,16.95
2022-09-15T18:54:20.608Z,16.89
2022-09-15T18:56:57.798Z,16.87
2022-09-15T18:59:25.464Z,16.86
2022-09-15T19:01:51.965Z,16.85
2022-09-15T19:04:18.736Z,16.82
2022-09-15T19:06:45.395Z,16.80
2022-09-15T19:09:11.879Z,16.77
2022-09-15T19:11:39.581Z,16.75
2022-09-15T19:14:07.033Z,16.75
2022-09-15T19:16:53.894Z,16.76
2022-09-15T19:19:20.363Z,16.80
2022-09-15T19:21:47.080Z,16.83
2022-09-15T19:24:15.333Z,16.88
2022-09-15T19:26:43.293Z,16.91
2022-09-15T19:29:10.375Z,16.95
2022-09-15T19:31:41.688Z,16.99
2022-09-15T19:34:08.536Z,17.04
2022-09-15T19:36:35.088Z,17.08
2022-09-15T19:39:02.947Z,17.12
2022-09-15T19:41:29.620Z,17.16
2022-09-15T19:43:56.416Z,17.21
2022-09-15T19:46:24.071Z,17.27
2022-09-15T19:48:51.362Z,17.32
2022-09-15T19:51:18.552Z,17.38
2022-09-15T19:53:45.368Z,17.45
2022-09-15T19:56:13.735Z,17.50
2022-09-15T19:58:40.263Z,17.55
2022-09-15T20:01:06.926Z,17.59
2022-09-15T20:03:33.529Z,17.64
2022-09-15T20:06:00.029Z,17.68
2022-09-15T20:08:26.614Z,17.71
2022-09-15T20:10:53.261Z,17.75
2022-09-15T20:13:20.035Z,17.78
2022-09-15T20:15:57.285Z,17.81
2022-09-15T20:18:24.288Z,17.82
2022-09-15T20:20:50.733Z,17.84
2022-09-15T20:23:17.390Z,17.84
2022-09-15T20:25:55.369Z,17.84
2022-09-15T20:28:21.961Z,17.82
2022-09-15T20:30:58.244Z,17.81
2022-09-15T20:33:25.668Z,17.78
2022-09-15T20:35:52.480Z,17.76
2022-09-15T20:38:19.929Z,17.75
2022-09-15T20:40:46.316Z,17.73
2022-09-15T20:43:12.782Z,17.73
2022-09-15T20:45:39.190Z,17.71
2022-09-15T20:48:05.799Z,17.70
2022-09-15T20:50:32.335Z,17.69
2022-09-15T20:52:58.809Z,17.68
2022-09-15T20:55:25.256Z,17.68
2022-09-15T20:57:51.768Z,17.69
2022-09-15T21:00:18.151Z,17.69
2022-09-15T21:02:44.708Z,17.69
2022-09-15T21:05:11.836Z,17.68
2022-09-15T21:07:38.317Z,17.66
2022-09-15T21:10:06.027Z,17.67
2022-09-15T21:12:33.313Z,17.67
2022-09-15T21:15:00.648Z,17.67
2022-09-15T21:17:28.365Z,17.67
2022-09-15T21:19:55.060Z,17.66
2022-09-15T21:22:21.500Z,17.64
2022-09-15T21:24:47.983Z,17.61
2022-09-15T21:27:26.495Z,17.58
2022-09-15T21:29:53.616Z,17.56
2022-09-15T21:32:20.413Z,17.54
2022-09-15T21:34:47.561Z,17.52
2022-09-15T21:37:14.136Z,17.50
2022-09-15T21:39:40.626Z,17.46
2022-09-15T21:42:07.069Z,17.44
2022-09-15T21:44:34.072Z,17.43
2022-09-15T21:47:00.708Z,17.42
2022-09-15T21:49:27.205Z,17.43
2022-09-15T21:51:53.715Z,17.42
2022-09-15T21:54:20.373Z,17.44
2022-09-15T21:56:47.226Z,17.45
2022-09-15T21:59:13.612Z,17.45
2022-09-15T22:01:40.881Z,17.44
2022-09-15T22:04:07.690Z,17.44
2022-09-15T22:06:35.893Z,17.44
2022-09-15T22:09:07.436Z,17.44
2022-09-15T22:11:35.627Z,17.43
2022-09-15T22:14:02.778Z,17.41
2022-09-15T22:16:30.003Z,17.40
2022-09-15T22:18:56.859Z,17.40
2022-09-15T22:21:27.500Z,17.38
2022-09-15T22:23:55.310Z,17.37
2022-09-15T22:26:24.979Z,17.36
2022-09-15T22:28:51.621Z,17.36
2022-09-15T22:31:19.076Z,17.34
2022-09-15T22:33:45.992Z,17.34
2022-09-15T22:36:17.002Z,17.34
2022-09-15T22:38:43.593Z,17.36
2022-09-15T22:41:12.361Z,17.36
2022-09-15T22:43:40.377Z,17.35
2022-09-15T22:46:07.187Z,17.35
2022-09-15T22:48:37.554Z,17.36
2022-09-15T22:51:07.753Z,17.37
2022-09-15T22:53:34.727Z,17.38
2022-09-15T22:56:13.837Z,17.40
2022-09-15T22:58:42.222Z,17.41
2022-09-15T23:01:11.546Z,17.41
2022-09-15T23:03:38.804Z,17.41
2022-09-15T23:06:05.676Z,17.40
2022-09-15T23:08:33.056Z,17.37
2022-09-15T23:11:04.161Z,17.34
2022-09-15T23:13:30.770Z,17.33
2022-09-15T23:15:57.420Z,17.30
2022-09-15T23:18:24.094Z,17.27
2022-09-15T23:21:01.900Z,17.25
2022-09-15T23:23:28.820Z,17.23
2022-09-15T23:25:55.356Z,17.18
2022-09-15T23:28:21.870Z,17.16
2022-09-15T23:30:52.388Z,17.15
2022-09-15T23:33:18.957Z,17.14
2022-09-15T23:35:45.913Z,17.16
2022-09-15T23:38:12.629Z,17.16
2022-09-15T23:40:42.478Z,17.16
2022-09-15T23:43:09.713Z,17.16
2022-09-15T23:45:49.946Z,17.16
2022-09-15T23:48:28.250Z,17.15
2022-09-15T23:50:54.786Z,17.15
2022-09-15T23:53:21.186Z,17.12
2022-09-15T23:55:47.714Z,17.09
2022-09-15T23:58:15.002Z,17.06
